Time;durP1;ratioP1;P1;durP2;ratioP2;P2;SDS_P1;SDS_P2;PMS_P1;PMS_P2;Temp;Humidity;BMP_temperature;BMP_pressure;BME280_temperature;BME280_humidity;BME280_pressure;Samples;Min_cycle;Max_cycle;Signal;HPM_P1;HPM_P2
2021/09/29 00:01:14;;;;;;;;;;;;;;;3.31;70.15;101802.44;5036925;28;20287;-77
2021/09/29 00:03:40;;;;;;;;;;;;;;;3.23;69.96;101804.56;5036443;28;19931;-77
2021/09/29 00:06:05;;;;;;;;;;;;;;;3.21;70.64;101810.47;5036936;28;20311;-76
2021/09/29 00:08:31;;;;;;;;;;;;;;;3.18;70.90;101811.19;5020337;28;19924;-76
2021/09/29 00:10:56;;;;;;;;;;;;;;;3.18;70.48;101811.19;5033797;28;20020;-77
2021/09/29 00:13:25;;;;;;;;;;;;;;;3.15;70.17;101811.03;5019810;28;20020;-77
2021/09/29 00:15:51;;;;;;;;;;;;;;;3.13;70.18;101813.50;5037793;28;19925;-78
2021/09/29 00:18:17;;;;;;;;;;;;;;;3.15;70.84;101806.75;5019207;28;19921;-77
2021/09/29 00:20:42;;;;;;;;;;;;;;;3.10;70.80;101813.31;5039384;28;19943;-77
2021/09/29 00:23:08;;;;;;;;;;;;;;;3.04;71.16;101814.69;5019695;28;19921;-77
2021/09/29 00:25:34;;;;;;;;;;;;;;;3.06;70.78;101813.09;5017265;28;19929;-77
2021/09/29 00:28:00;;;;;;;;;;;;;;;3.10;71.09;101817.59;5035237;28;20357;-77
2021/09/29 00:30:26;;;;;;;;;;;;;;;3.14;70.97;101809.25;5037274;28;19931;-76
2021/09/29 00:32:52;;;;;;;;;;;;;;;3.17;70.75;101822.28;5007506;28;20051;-78
2021/09/29 00:35:17;;;;;;;;;;;;;;;3.19;71.17;101815.53;5056528;28;19943;-76
2021/09/29 00:37:43;;;;;;;;;;;;;;;3.28;70.95;101815.13;5031141;28;19966;-77
2021/09/29 00:40:10;;;;;;;;;;;;;;;3.25;70.58;101818.41;5041728;28;20400;-78
2021/09/29 00:42:36;;;;;;;;;;;;;;;3.27;71.22;101814.25;5032785;28;19921;-77
2021/09/29 00:45:02;;;;;;;;;;;;;;;3.36;71.21;101812.97;5035913;28;20012;-78
2021/09/29 00:47:30;;;;;;;;;;;;;;;3.37;70.55;101817.31;5034951;28;19990;-78
2021/09/29 00:49:56;;;;;;;;;;;;;;;3.34;70.88;101817.16;5033246;28;20047;-78
2021/09/29 00:52:21;;;;;;;;;;;;;;;3.35;71.04;101817.22;5032905;28;20015;-76
2021/09/29 00:54:47;;;;;;;;;;;;;;;3.31;70.94;101813.59;5017013;28;19924;-76
2021/09/29 00:57:12;;;;;;;;;;;;;;;3.38;71.20;101803.66;5031801;28;20350;-77
2021/09/29 00:59:38;;;;;;;;;;;;;;;3.36;71.09;101816.41;5032181;28;19979;-77
2021/09/29 01:02:03;;;;;;;;;;;;;;;3.33;70.78;101811.09;5031627;28;19921;-76
2021/09/29 01:04:30;;;;;;;;;;;;;;;3.30;70.95;101811.84;5034052;28;19921;-76
2021/09/29 01:06:55;;;;;;;;;;;;;;;3.27;70.62;101818.50;5031927;28;20309;-77
2021/09/29 01:09:24;;;;;;;;;;;;;;;3.25;71.17;101815.84;5039435;28;19936;-76
2021/09/29 01:11:49;;;;;;;;;;;;;;;3.22;70.92;101815.66;5032040;28;19931;-78
2021/09/29 01:14:18;;;;;;;;;;;;;;;3.23;71.17;101811.44;5031284;28;19920;-77
2021/09/29 01:16:46;;;;;;;;;;;;;;;3.19;71.21;101805.25;5031623;28;19921;-78
2021/09/29 01:19:34;;;;;;;;;;;;;;;3.21;70.84;101800.16;5035708;28;19921;-77
2021/09/29 01:22:08;;;;;;;;;;;;;;;3.17;70.67;101802.56;5058209;28;19924;-78
2021/09/29 01:24:56;;;;;;;;;;;;;;;3.13;70.86;101812.63;5053234;28;19948;-77
2021/09/29 01:27:22;;;;;;;;;;;;;;;3.15;71.20;101805.88;5017377;28;19921;-76
2021/09/29 01:29:49;;;;;;;;;;;;;;;3.20;71.06;101803.53;5025672;28;20023;-77
2021/09/29 01:32:15;;;;;;;;;;;;;;;3.24;71.59;101800.34;5032715;28;19931;-78
2021/09/29 01:34:40;;;;;;;;;;;;;;;3.27;71.13;101803.94;5035180;28;19940;-79
2021/09/29 01:37:09;;;;;;;;;;;;;;;3.28;70.79;101807.41;5033720;28;19931;-77
2021/09/29 01:39:36;;;;;;;;;;;;;;;3.29;71.31;101799.78;5034962;28;19921;-78
2021/09/29 01:42:02;;;;;;;;;;;;;;;3.33;71.86;101794.78;5032142;28;19931;-77
2021/09/29 01:44:30;;;;;;;;;;;;;;;3.35;71.26;101799.19;5044436;28;19925;-78
2021/09/29 01:46:57;;;;;;;;;;;;;;;3.36;71.27;101800.09;5054301;28;19927;-78
2021/09/29 01:49:26;;;;;;;;;;;;;;;3.36;71.22;101800.09;5038480;28;19925;-77
2021/09/29 01:51:52;;;;;;;;;;;;;;;3.33;71.20;101799.94;5036589;28;19948;-78
2021/09/29 01:54:20;;;;;;;;;;;;;;;3.34;70.99;101802.56;5038317;28;19921;-77
2021/09/29 01:56:46;;;;;;;;;;;;;;;3.37;71.41;101804.44;5037598;28;19925;-79
2021/09/29 01:59:12;;;;;;;;;;;;;;;3.34;71.03;101806.84;5044777;28;19921;-77
2021/09/29 02:01:39;;;;;;;;;;;;;;;3.34;71.34;101802.56;5021075;28;19997;-77
2021/09/29 02:04:05;;;;;;;;;;;;;;;3.37;71.78;101807.88;5020990;28;19928;-77
2021/09/29 02:06:42;;;;;;;;;;;;;;;3.40;71.26;101809.75;5036814;28;19921;-77
2021/09/29 02:09:07;;;;;;;;;;;;;;;3.41;71.28;101803.81;5038107;28;19988;-79
2021/09/29 02:11:33;;;;;;;;;;;;;;;3.45;71.39;101809.19;5038129;28;19976;-78
2021/09/29 02:13:59;;;;;;;;;;;;;;;3.45;70.86;101808.28;5048031;28;19925;-77
2021/09/29 02:16:24;;;;;;;;;;;;;;;3.44;71.09;101810.00;5057217;28;19909;-78
2021/09/29 02:18:50;;;;;;;;;;;;;;;3.45;71.73;101806.63;5054860;28;20005;-77
2021/09/29 02:21:15;;;;;;;;;;;;;;;3.49;72.05;101811.94;5055095;28;19909;-77
2021/09/29 02:23:41;;;;;;;;;;;;;;;3.49;71.29;101810.22;5062555;28;19929;-78
2021/09/29 02:26:06;;;;;;;;;;;;;;;3.50;71.61;101803.41;5055664;28;19905;-77
2021/09/29 02:28:32;;;;;;;;;;;;;;;3.48;71.86;101813.59;5057164;28;19971;-76
2021/09/29 02:30:58;;;;;;;;;;;;;;;3.50;71.45;101812.00;5050207;28;19928;-75
2021/09/29 02:33:24;;;;;;;;;;;;;;;3.51;72.11;101808.63;5032229;28;19925;-76
2021/09/29 02:35:49;;;;;;;;;;;;;;;3.55;71.67;101809.66;5030976;28;19921;-76
2021/09/29 02:38:15;;;;;;;;;;;;;;;3.53;71.69;101809.59;5030992;28;20392;-75
2021/09/29 02:40:40;;;;;;;;;;;;;;;3.52;71.50;101805.22;5039365;28;20328;-76
2021/09/29 02:43:06;;;;;;;;;;;;;;;3.51;71.50;101813.75;5031456;28;19925;-76
2021/09/29 02:45:31;;;;;;;;;;;;;;;3.50;71.66;101813.69;4998986;28;19928;-75
2021/09/29 02:47:57;;;;;;;;;;;;;;;3.50;71.58;101813.69;5030987;28;19925;-77
2021/09/29 02:50:22;;;;;;;;;;;;;;;3.46;72.20;101810.97;5033614;28;19921;-77
2021/09/29 02:52:48;;;;;;;;;;;;;;;3.48;71.89;101818.75;4996479;28;19924;-75
2021/09/29 02:55:13;;;;;;;;;;;;;;;3.46;71.50;101810.06;5031035;28;20011;-77
2021/09/29 02:57:39;;;;;;;;;;;;;;;3.42;72.09;101819.31;5032261;28;19966;-76
2021/09/29 03:00:05;;;;;;;;;;;;;;;3.48;72.70;101816.16;5030947;28;20048;-76
2021/09/29 03:02:30;;;;;;;;;;;;;;;3.51;72.15;101826.63;5030363;28;19924;-77
2021/09/29 03:04:56;;;;;;;;;;;;;;;3.46;71.80;101828.06;5030281;28;19921;-77
2021/09/29 03:07:21;;;;;;;;;;;;;;;3.48;72.32;101826.47;5039119;28;20027;-75
2021/09/29 03:09:47;;;;;;;;;;;;;;;3.45;72.02;101823.72;5039372;28;20319;-76
2021/09/29 03:12:13;;;;;;;;;;;;;;;3.43;72.12;101826.25;5029704;28;19929;-76
2021/09/29 03:14:38;;;;;;;;;;;;;;;3.39;71.99;101826.88;5026039;28;19921;-78
2021/09/29 03:17:04;;;;;;;;;;;;;;;3.41;71.65;101826.97;5030718;28;19921;-77
2021/09/29 03:19:30;;;;;;;;;;;;;;;3.44;72.04;101820.28;5033605;28;19967;-78
2021/09/29 03:21:56;;;;;;;;;;;;;;;3.43;72.26;101826.25;5031396;28;19927;-78
2021/09/29 03:24:22;;;;;;;;;;;;;;;3.43;72.39;101826.25;5033221;28;19920;-77
2021/09/29 03:26:48;;;;;;;;;;;;;;;3.45;72.37;101828.88;5035624;28;20019;-77
2021/09/29 03:29:14;;;;;;;;;;;;;;;3.44;71.86;101827.09;5052968;28;19924;-77
2021/09/29 03:31:39;;;;;;;;;;;;;;;3.48;72.44;101831.63;5047714;28;19924;-77
2021/09/29 03:34:05;;;;;;;;;;;;;;;3.50;72.11;101832.59;5044729;28;19928;-78
2021/09/29 03:36:31;;;;;;;;;;;;;;;3.53;72.41;101832.75;5031181;28;19956;-78
2021/09/29 03:39:00;;;;;;;;;;;;;;;3.59;72.55;101827.94;5031691;28;19927;-76
2021/09/29 03:41:25;;;;;;;;;;;;;;;3.69;72.22;101830.97;5030801;28;20392;-76
2021/09/29 03:43:51;;;;;;;;;;;;;;;3.73;72.09;101832.91;5027880;28;19948;-80
2021/09/29 03:46:17;;;;;;;;;;;;;;;3.80;72.25;101835.00;5044412;28;19944;-76
2021/09/29 03:48:44;;;;;;;;;;;;;;;3.93;71.92;101836.50;5038816;28;20439;-77
2021/09/29 03:51:09;;;;;;;;;;;;;;;4.05;72.36;101833.66;5015351;28;19956;-77
2021/09/29 03:53:35;;;;;;;;;;;;;;;4.14;71.71;101836.69;5035177;28;19921;-79
2021/09/29 03:56:02;;;;;;;;;;;;;;;4.22;72.01;101835.38;5041154;28;19921;-80
2021/09/29 03:58:28;;;;;;;;;;;;;;;4.32;72.44;101836.72;5035906;28;19970;-78
2021/09/29 04:00:53;;;;;;;;;;;;;;;4.23;72.45;101795.03;5037027;28;19949;-79
2021/09/29 04:03:20;;;;;;;;;;;;;;;4.63;72.70;101840.81;5035558;28;19928;-81
2021/09/29 04:05:47;;;;;;;;;;;;;;;4.73;72.03;101839.56;5034445;28;20376;-80
2021/09/29 04:08:13;;;;;;;;;;;;;;;4.83;71.84;101844.31;5039360;28;21003;-78
2021/09/29 04:10:39;;;;;;;;;;;;;;;4.96;71.93;101842.34;5017674;28;20151;-76
2021/09/29 04:13:06;;;;;;;;;;;;;;;5.00;71.04;101841.66;5044513;28;19925;-79
2021/09/29 04:15:32;;;;;;;;;;;;;;;5.11;71.81;101840.47;5003453;28;20377;-78
2021/09/29 04:17:58;;;;;;;;;;;;;;;5.19;70.71;101840.81;5033132;28;19932;-80
2021/09/29 04:20:24;;;;;;;;;;;;;;;5.40;71.81;101843.50;5016279;28;19921;-78
2021/09/29 04:22:50;;;;;;;;;;;;;;;5.75;71.44;101837.22;5034991;28;19928;-76
2021/09/29 04:25:15;;;;;;;;;;;;;;;6.08;70.96;101839.50;5019413;28;19921;-76
2021/09/29 04:27:44;;;;;;;;;;;;;;;6.43;70.97;101834.94;5035810;28;19921;-77
2021/09/29 04:30:10;;;;;;;;;;;;;;;6.74;70.65;101825.78;5018089;28;19927;-77
2021/09/29 04:32:35;;;;;;;;;;;;;;;7.22;70.56;101835.41;5035064;28;19956;-76
2021/09/29 04:35:01;;;;;;;;;;;;;;;7.99;70.21;101826.88;5036910;28;19921;-77
2021/09/29 04:37:28;;;;;;;;;;;;;;;8.76;69.31;101815.56;5038610;28;19955;-77
2021/09/29 04:39:53;;;;;;;;;;;;;;;9.49;68.50;101823.72;5049636;28;19997;-78
2021/09/29 04:42:19;;;;;;;;;;;;;;;10.29;67.94;101812.75;5029811;28;19928;-77
2021/09/29 04:44:44;;;;;;;;;;;;;;;11.12;67.29;101809.50;5041172;28;19935;-77
2021/09/29 04:47:10;;;;;;;;;;;;;;;12.02;66.24;101810.31;5040902;28;19921;-77
2021/09/29 04:49:36;;;;;;;;;;;;;;;12.70;65.03;101795.72;5043791;28;19944;-79
2021/09/29 04:52:01;;;;;;;;;;;;;;;13.31;64.07;101799.13;5038560;28;20351;-77
2021/09/29 04:54:28;;;;;;;;;;;;;;;13.85;62.95;101787.47;5034514;28;19932;-77
2021/09/29 04:56:53;;;;;;;;;;;;;;;14.40;61.55;101790.53;5018037;28;21339;-78
2021/09/29 04:59:19;;;;;;;;;;;;;;;14.88;61.08;101783.88;5034139;28;19974;-78
2021/09/29 05:01:45;;;;;;;;;;;;;;;15.33;60.14;101784.06;5035449;28;19921;-80
2021/09/29 05:04:10;;;;;;;;;;;;;;;15.72;59.77;101783.25;5017297;28;19920;-79
2021/09/29 05:06:39;;;;;;;;;;;;;;;16.03;58.99;101784.19;5035630;28;19928;-77
2021/09/29 05:09:04;;;;;;;;;;;;;;;16.35;58.20;101772.75;5031310;28;19928;-78
2021/09/29 05:11:34;;;;;;;;;;;;;;;16.62;57.82;101776.19;5032167;28;19932;-77
2021/09/29 05:14:00;;;;;;;;;;;;;;;16.84;57.15;101778.75;5033364;28;20396;-78
2021/09/29 05:16:26;;;;;;;;;;;;;;;17.15;56.77;101782.16;5033264;28;19924;-78
2021/09/29 05:18:52;;;;;;;;;;;;;;;17.75;56.72;101777.44;5033204;28;20432;-79
2021/09/29 05:21:17;;;;;;;;;;;;;;;18.32;55.12;101776.09;5035766;28;19932;-79
2021/09/29 05:23:43;;;;;;;;;;;;;;;18.76;54.84;101773.88;5016636;28;20019;-79
2021/09/29 05:26:09;;;;;;;;;;;;;;;19.11;54.02;101772.59;5008829;28;19928;-78
2021/09/29 05:28:36;;;;;;;;;;;;;;;19.75;53.53;101772.53;5038565;28;19925;-78
2021/09/29 05:31:01;;;;;;;;;;;;;;;20.44;52.39;101770.50;5031873;28;19928;-77
2021/09/29 05:33:27;;;;;;;;;;;;;;;21.14;51.63;101760.31;5038359;28;19929;-77
2021/09/29 05:35:53;;;;;;;;;;;;;;;21.81;50.62;101757.91;5042890;28;19971;-76
2021/09/29 05:38:19;;;;;;;;;;;;;;;22.46;49.66;101760.66;5033351;28;20000;-77
2021/09/29 05:40:44;;;;;;;;;;;;;;;23.06;48.55;101760.69;5033925;28;20257;-77
2021/09/29 05:43:10;;;;;;;;;;;;;;;23.57;47.45;101761.81;5032526;28;19967;-76
2021/09/29 05:45:35;;;;;;;;;;;;;;;24.13;46.48;101754.63;5031487;28;19981;-78
2021/09/29 05:48:01;;;;;;;;;;;;;;;24.58;45.81;101761.03;5032411;28;19935;-77
2021/09/29 05:50:26;;;;;;;;;;;;;;;25.21;45.63;101759.56;5031804;28;19925;-78
2021/09/29 05:52:52;;;;;;;;;;;;;;;25.95;44.10;101755.69;5030952;28;19952;-78
2021/09/29 05:55:17;;;;;;;;;;;;;;;26.77;43.15;101749.41;5031685;28;20672;-77
2021/09/29 05:57:43;;;;;;;;;;;;;;;27.32;42.10;101745.94;5031045;28;20385;-77
2021/09/29 06:00:09;;;;;;;;;;;;;;;27.83;40.87;101745.25;5014536;28;19920;-76
2021/09/29 06:02:38;;;;;;;;;;;;;;;28.18;39.99;101739.03;5031122;28;19925;-81
2021/09/29 06:05:04;;;;;;;;;;;;;;;28.51;39.20;101743.53;5029613;28;19998;-77
2021/09/29 06:07:34;;;;;;;;;;;;;;;28.90;38.79;101749.47;5033709;28;19982;-78
2021/09/29 06:09:59;;;;;;;;;;;;;;;29.27;37.98;101750.06;5045902;28;20058;-77
2021/09/29 06:12:25;;;;;;;;;;;;;;;29.64;37.32;101742.63;5031898;28;20398;-77
2021/09/29 06:14:53;;;;;;;;;;;;;;;30.13;36.16;101740.63;5035111;28;19922;-77
2021/09/29 06:17:36;;;;;;;;;;;;;;;30.55;35.47;101752.34;5013334;28;19963;-78
2021/09/29 06:20:03;;;;;;;;;;;;;;;31.00;35.14;101737.91;4995794;28;20902;-77
2021/09/29 06:22:28;;;;;;;;;;;;;;;31.42;34.23;101741.44;5029175;28;19944;-78
2021/09/29 06:24:54;;;;;;;;;;;;;;;31.38;33.93;101738.06;5030326;28;20220;-78
2021/09/29 06:27:19;;;;;;;;;;;;;;;31.46;33.71;101740.25;5030014;28;20011;-77
2021/09/29 06:29:45;;;;;;;;;;;;;;;31.63;33.13;101741.81;5030394;28;20023;-78
2021/09/29 06:32:11;;;;;;;;;;;;;;;31.79;32.86;101740.78;5030100;28;20040;-77
2021/09/29 06:34:36;;;;;;;;;;;;;;;32.00;32.38;101750.06;5014312;28;19921;-77
2021/09/29 06:37:02;;;;;;;;;;;;;;;32.20;31.95;101739.75;4998612;28;19924;-78
2021/09/29 06:39:31;;;;;;;;;;;;;;;32.54;31.44;101741.91;5030198;28;20317;-77
2021/09/29 06:41:57;;;;;;;;;;;;;;;32.65;31.14;101747.34;5030152;28;19928;-78
2021/09/29 06:44:23;;;;;;;;;;;;;;;32.70;31.44;101747.00;5032145;28;20018;-78
2021/09/29 06:46:50;;;;;;;;;;;;;;;32.50;30.87;101748.47;5030653;28;19920;-77
2021/09/29 06:49:15;;;;;;;;;;;;;;;32.40;31.23;101742.88;5031756;28;19925;-78
2021/09/29 06:51:41;;;;;;;;;;;;;;;32.52;31.11;101739.31;5033310;28;19925;-77
2021/09/29 06:54:07;;;;;;;;;;;;;;;32.97;30.35;101748.69;5029984;28;19980;-78
2021/09/29 06:57:08;;;;;;;;;;;;;;;33.74;29.21;101752.88;5030038;28;19964;-80
2021/09/29 06:59:35;;;;;;;;;;;;;;;35.20;27.63;101741.38;5029610;28;20287;-76
2021/09/29 07:02:05;;;;;;;;;;;;;;;36.11;26.41;101740.91;5032219;28;19920;-79
2021/09/29 07:05:05;;;;;;;;;;;;;;;;;;;;;
2021/09/29 07:07:35;;;;;;;;;;;;;;;37.66;25.09;101743.25;5029766;28;19932;-79
2021/09/29 07:10:02;;;;;;;;;;;;;;;37.69;24.72;101737.53;5032064;28;19920;-80
2021/09/29 07:12:28;;;;;;;;;;;;;;;37.57;24.33;101749.56;5029150;28;19925;-79
2021/09/29 07:15:19;;;;;;;;;;;;;;;36.69;24.96;101743.00;5016485;28;19925;-79
2021/09/29 07:17:58;;;;;;;;;;;;;;;36.57;25.37;101739.53;5032033;28;20377;-78
2021/09/29 07:20:36;;;;;;;;;;;;;;;37.01;24.42;101743.81;4999677;28;20395;-78
2021/09/29 07:23:05;;;;;;;;;;;;;;;37.36;24.26;101737.81;5031076;28;20011;-77
2021/09/29 07:25:32;;;;;;;;;;;;;;;37.62;23.81;101731.00;5032201;28;19921;-80
2021/09/29 07:28:01;;;;;;;;;;;;;;;38.17;23.40;101729.41;5029417;28;19921;-78
2021/09/29 07:30:27;;;;;;;;;;;;;;;38.83;22.79;101724.78;5030164;28;19932;-79
2021/09/29 07:32:53;;;;;;;;;;;;;;;39.16;22.26;101720.53;5031406;28;20388;-78
2021/09/29 07:35:19;;;;;;;;;;;;;;;39.06;22.12;101727.94;5033474;28;19925;-79
2021/09/29 07:37:45;;;;;;;;;;;;;;;39.24;21.70;101718.91;5021572;28;19920;-78
2021/09/29 07:40:11;;;;;;;;;;;;;;;39.70;21.56;101727.81;5048247;28;19955;-79
2021/09/29 07:42:37;;;;;;;;;;;;;;;39.76;20.72;101719.00;5050925;28;19920;-80
2021/09/29 07:45:12;;;;;;;;;;;;;;;39.96;20.63;101717.94;5047400;28;19921;-79
2021/09/29 07:47:38;;;;;;;;;;;;;;;39.74;20.19;101722.88;5035966;28;19948;-78
2021/09/29 07:50:12;;;;;;;;;;;;;;;39.64;20.38;101716.69;5036694;28;19967;-80
2021/09/29 07:52:43;;;;;;;;;;;;;;;40.05;20.21;101716.97;5034097;28;19925;-78
2021/09/29 07:55:13;;;;;;;;;;;;;;;40.62;19.34;101707.31;5002718;28;19921;-80
2021/09/29 07:57:39;;;;;;;;;;;;;;;41.13;19.40;101723.63;5033842;28;19960;-80
2021/09/29 08:00:05;;;;;;;;;;;;;;;41.63;18.41;101724.47;5032991;28;19975;-79
2021/09/29 08:02:41;;;;;;;;;;;;;;;41.57;18.15;101725.19;5032728;28;19932;-80
2021/09/29 08:05:12;;;;;;;;;;;;;;;41.27;18.83;101730.28;5036391;28;19921;-79
2021/09/29 08:07:51;;;;;;;;;;;;;;;40.63;18.60;101718.03;5049659;28;19921;-79
2021/09/29 08:10:19;;;;;;;;;;;;;;;39.87;19.24;101726.06;5041150;28;19971;-79
2021/09/29 08:12:45;;;;;;;;;;;;;;;38.13;19.95;101724.28;5023810;28;20119;-79
2021/09/29 08:15:16;;;;;;;;;;;;;;;37.61;19.90;101729.28;5036113;28;19920;-78
2021/09/29 08:17:45;;;;;;;;;;;;;;;37.98;19.91;101712.19;5033965;28;19920;-80
2021/09/29 08:20:33;;;;;;;;;;;;;;;38.80;18.97;101714.22;5032355;28;20376;-79
2021/09/29 08:23:05;;;;;;;;;;;;;;;39.30;18.36;101713.72;5036132;28;19929;-78
2021/09/29 08:28:27;;;;;;;;;;;;;;;39.02;17.46;101708.34;5033331;28;19932;-78
2021/09/29 08:33:44;;;;;;;;;;;;;;;39.74;17.22;101718.28;5033309;28;19922;-79
2021/09/29 08:39:42;;;;;;;;;;;;;;;40.11;16.74;101716.31;5036422;28;19974;-79
2021/09/29 08:44:40;;;;;;;;;;;;;;;39.65;16.48;101699.31;5033385;28;20296;-78
2021/09/29 08:47:16;;;;;;;;;;;;;;;37.93;17.88;101707.22;5018609;28;19921;-78
2021/09/29 09:17:39;;;;;;;;;;;;;;;37.13;16.96;101687.56;4982923;28;20284;-81
2021/09/29 09:20:08;;;;;;;;;;;;;;;36.83;17.38;101683.97;5034070;28;19921;-75
2021/09/29 09:22:34;;;;;;;;;;;;;;;36.70;17.48;101682.38;5034111;28;19936;-76
2021/09/29 09:25:00;;;;;;;;;;;;;;;37.12;16.74;101691.28;5047092;28;20019;-77
2021/09/29 09:27:35;;;;;;;;;;;;;;;37.62;16.92;101685.69;5016340;28;20020;-79
2021/09/29 09:30:02;;;;;;;;;;;;;;;37.61;16.42;101680.41;5039559;28;20341;-77
2021/09/29 09:32:28;;;;;;;;;;;;;;;37.78;16.61;101674.22;5033874;28;20023;-77
2021/09/29 09:35:01;;;;;;;;;;;;;;;37.45;16.45;101681.84;5017254;28;20075;-77
2021/09/29 09:37:29;;;;;;;;;;;;;;;37.55;16.83;101676.41;5010253;28;19931;-77
2021/09/29 09:40:04;;;;;;;;;;;;;;;37.75;15.79;101671.78;5015357;28;19926;-78
2021/09/29 09:42:37;;;;;;;;;;;;;;;37.77;16.28;101667.06;5046697;28;20016;-78
2021/09/29 09:45:03;;;;;;;;;;;;;;;37.15;16.37;101669.28;5055043;28;19929;-80
2021/09/29 09:47:36;;;;;;;;;;;;;;;36.65;17.11;101673.78;5057111;28;19913;-77
2021/09/29 09:50:01;;;;;;;;;;;;;;;36.71;16.65;101666.97;5052779;28;20316;-78
2021/09/29 09:52:29;;;;;;;;;;;;;;;36.97;16.77;101666.44;5032777;28;19925;-79
2021/09/29 09:55:03;;;;;;;;;;;;;;;37.34;16.54;101673.84;5035512;28;19932;-76
2021/09/29 09:57:29;;;;;;;;;;;;;;;37.62;16.65;101672.09;5033265;28;19966;-78
2021/09/29 09:59:55;;;;;;;;;;;;;;;37.17;16.30;101668.16;5034040;28;20389;-78
2021/09/29 10:02:20;;;;;;;;;;;;;;;35.26;17.28;101663.28;5032776;28;19925;-78
2021/09/29 10:04:47;;;;;;;;;;;;;;;33.22;18.56;101672.22;5033057;28;19921;-76
2021/09/29 10:07:13;;;;;;;;;;;;;;;31.65;19.73;101677.16;5039545;28;20028;-78
2021/09/29 10:23:15;;;;;;;;;;;;;;;25.53;22.99;101685.50;5032569;28;20411;-77
2021/09/29 10:26:09;;;;;;;;;;;;;;;24.93;23.82;101681.66;5038979;28;19988;-78
2021/09/29 10:28:38;;;;;;;;;;;;;;;24.40;23.91;101689.84;5028562;28;20448;-79
2021/09/29 10:33:32;;;;;;;;;;;;;;;23.67;24.42;101690.63;5037589;28;19921;-77
2021/09/29 10:44:58;;;;;;;;;;;;;;;22.04;25.22;101691.94;5036251;28;19975;-76
2021/09/29 10:47:37;;;;;;;;;;;;;;;21.48;25.81;101702.16;5034628;28;19920;-78
2021/09/29 11:29:23;;;;;;;;;;;;;;;18.03;29.69;101691.19;5033058;28;20323;-74
2021/09/29 11:31:55;;;;;;;;;;;;;;;18.06;29.71;101683.25;5013542;28;19936;-76
2021/09/29 11:34:26;;;;;;;;;;;;;;;17.97;29.95;101685.09;5030313;28;20280;-75
2021/09/29 12:09:03;;;;;;;;;;;;;;;15.82;33.48;101680.00;5031170;28;19921;-77
2021/09/29 12:11:32;;;;;;;;;;;;;;;15.98;33.70;101674.78;5030158;28;19934;-75
2021/09/29 12:13:59;;;;;;;;;;;;;;;16.14;33.42;101679.13;4996438;28;20364;-74
2021/09/29 12:16:29;;;;;;;;;;;;;;;16.17;33.18;101679.13;5030874;28;20381;-75
2021/09/29 12:18:59;;;;;;;;;;;;;;;16.04;33.23;101680.00;5045768;28;19921;-75
2021/09/29 12:21:41;;;;;;;;;;;;;;;15.86;33.85;101678.31;5015270;28;20409;-76
2021/09/29 12:24:09;;;;;;;;;;;;;;;15.71;34.24;101681.78;5048701;28;19971;-76
2021/09/29 12:26:42;;;;;;;;;;;;;;;15.49;34.05;101684.41;5041623;28;20015;-75
2021/09/29 12:29:22;;;;;;;;;;;;;;;15.32;34.65;101677.41;5015009;28;19921;-75
2021/09/29 12:34:28;;;;;;;;;;;;;;;15.22;34.83;101675.63;5036050;28;20069;-76
2021/09/29 12:36:57;;;;;;;;;;;;;;;15.07;35.11;101673.84;5032764;28;19927;-77
2021/09/29 12:39:25;;;;;;;;;;;;;;;14.98;35.34;101677.31;5033459;28;19920;-76
2021/09/29 12:41:52;;;;;;;;;;;;;;;14.87;35.66;101668.56;5036631;28;19928;-76
2021/09/29 12:44:18;;;;;;;;;;;;;;;14.78;35.61;101669.41;5033355;28;19924;-74
2021/09/29 12:47:02;;;;;;;;;;;;;;;14.68;35.98;101675.44;5051106;28;19928;-76
2021/09/29 12:49:28;;;;;;;;;;;;;;;14.55;35.94;101669.25;5051998;28;20635;-74
2021/09/29 12:52:00;;;;;;;;;;;;;;;14.48;36.27;101672.72;5033663;28;19968;-76
2021/09/29 12:54:26;;;;;;;;;;;;;;;14.38;36.24;101672.69;5036336;28;19929;-74
2021/09/29 12:56:53;;;;;;;;;;;;;;;14.36;36.65;101674.41;5035238;28;19921;-77
2021/09/29 12:59:22;;;;;;;;;;;;;;;14.37;36.64;101670.94;4999951;28;19928;-76
2021/09/29 13:01:47;;;;;;;;;;;;;;;14.33;36.97;101657.81;5016768;28;19989;-75
2021/09/29 13:04:13;;;;;;;;;;;;;;;14.28;36.86;101670.88;5024513;28;20291;-76
2021/09/29 13:06:38;;;;;;;;;;;;;;;14.19;37.24;101670.84;5031678;28;19925;-76
2021/09/29 13:09:04;;;;;;;;;;;;;;;14.14;37.26;101662.94;5015677;28;19960;-75
2021/09/29 13:11:30;;;;;;;;;;;;;;;14.12;37.31;101665.56;5032728;28;19928;-77
2021/09/29 13:13:55;;;;;;;;;;;;;;;14.11;37.57;101662.94;5036014;28;19933;-76
2021/09/29 13:16:21;;;;;;;;;;;;;;;14.00;37.18;101662.88;5032265;28;19967;-74
2021/09/29 13:21:39;;;;;;;;;;;;;;;13.90;38.11;101666.28;5031808;28;19937;-74
2021/09/29 13:24:15;;;;;;;;;;;;;;;13.91;38.33;101660.19;5031914;28;20288;-75
2021/09/29 13:37:22;;;;;;;;;;;;;;;13.65;39.09;101663.47;5032207;28;19925;-76
2021/09/29 13:39:47;;;;;;;;;;;;;;;13.64;39.21;101661.72;5032618;28;19967;-75
2021/09/29 13:42:15;;;;;;;;;;;;;;;13.34;39.24;101637.91;5031673;28;19921;-75
2021/09/29 13:44:40;;;;;;;;;;;;;;;13.48;39.12;101673.78;5031714;28;19928;-74
2021/09/29 13:47:06;;;;;;;;;;;;;;;13.39;39.65;101671.94;5033319;28;19920;-75
2021/09/29 13:49:32;;;;;;;;;;;;;;;13.33;40.03;101680.59;5032179;28;19928;-75
2021/09/29 13:51:58;;;;;;;;;;;;;;;13.33;40.30;101677.13;5013238;28;20277;-75
2021/09/29 13:54:25;;;;;;;;;;;;;;;13.36;40.22;101678.03;5032017;28;20281;-75
2021/09/29 13:56:57;;;;;;;;;;;;;;;13.36;39.68;101678.03;5050099;28;19948;-75
2021/09/29 14:29:49;;;;;;;;;;;;;;;11.57;43.60;101694.78;5031217;28;20483;-76
2021/09/29 14:33:03;;;;;;;;;;;;;;;11.39;43.77;101697.94;5032086;28;19929;-76
2021/09/29 14:35:01;;;;;;;;;;;;;;;11.29;43.83;101707.31;5023170;28;19927;-74
2021/09/29 14:37:28;;;;;;;;;;;;;;;11.25;43.88;101706.38;5032909;28;19932;-76
2021/09/29 14:39:53;;;;;;;;;;;;;;;11.21;44.20;101709.78;5031077;28;20303;-76
2021/09/29 14:42:19;;;;;;;;;;;;;;;11.13;44.49;101708.75;5030307;28;19921;-76
2021/09/29 14:44:44;;;;;;;;;;;;;;;11.04;44.01;101705.94;5030265;28;20388;-76
2021/09/29 14:47:11;;;;;;;;;;;;;;;10.98;44.75;101707.59;5033618;28;20399;-75
2021/09/29 14:49:37;;;;;;;;;;;;;;;10.96;44.74;101713.63;5032835;28;19925;-76
2021/09/29 14:52:03;;;;;;;;;;;;;;;10.92;44.68;101722.25;5029234;28;20380;-75
2021/09/29 14:54:30;;;;;;;;;;;;;;;10.85;44.56;101714.28;5028086;28;19924;-74
2021/09/29 14:56:56;;;;;;;;;;;;;;;10.79;44.95;101721.09;5013734;28;19963;-75
2021/09/29 14:59:22;;;;;;;;;;;;;;;10.74;44.64;101723.59;5029562;28;19921;-76
2021/09/29 15:01:49;;;;;;;;;;;;;;;10.70;45.17;101727.88;5013187;28;21028;-75
2021/09/29 15:04:14;;;;;;;;;;;;;;;10.64;45.22;101721.66;5045979;28;20305;-75
2021/09/29 15:06:40;;;;;;;;;;;;;;;10.54;45.00;101721.44;5030568;28;19925;-76
2021/09/29 15:09:06;;;;;;;;;;;;;;;10.34;45.63;101726.19;5032934;28;20296;-75
2021/09/29 15:11:32;;;;;;;;;;;;;;;10.24;45.99;101726.78;5031809;28;19925;-75
2021/09/29 15:14:05;;;;;;;;;;;;;;;10.10;45.68;101729.06;5029181;28;20408;-76
2021/09/29 15:16:34;;;;;;;;;;;;;;;10.04;45.80;101728.94;5033609;28;20046;-75
2021/09/29 15:19:24;;;;;;;;;;;;;;;9.96;46.11;101741.75;5047832;28;19987;-75
2021/09/29 15:22:13;;;;;;;;;;;;;;;9.92;45.75;101737.31;5030541;28;19936;-77
2021/09/29 15:24:57;;;;;;;;;;;;;;;9.85;46.09;101740.59;4993891;28;20020;-72
2021/09/29 15:30:27;;;;;;;;;;;;;;;9.83;46.13;101737.94;5029827;28;19924;-75
2021/09/29 15:54:33;;;;;;;;;;;;;;;9.56;46.64;101759.81;5030888;28;20032;-76
2021/09/29 16:02:11;;;;;;;;;;;;;;;9.52;46.83;101764.88;5045444;28;19928;-77
2021/09/29 16:16:28;;;;;;;;;;;;;;;9.15;47.60;101762.16;4996643;28;19974;-75
2021/09/29 16:30:20;;;;;;;;;;;;;;;8.99;48.04;101768.63;4996570;28;19921;-74
2021/09/29 16:35:56;;;;;;;;;;;;;;;9.15;48.27;101768.22;5013208;28;19928;-77
2021/09/29 16:38:24;;;;;;;;;;;;;;;9.22;48.19;101771.00;5007584;28;19921;-76
2021/09/29 16:40:50;;;;;;;;;;;;;;;9.30;48.56;101775.56;5019490;28;19922;-74
2021/09/29 16:43:23;;;;;;;;;;;;;;;9.36;48.17;101772.25;5035680;28;19921;-76
2021/09/29 16:45:49;;;;;;;;;;;;;;;9.37;47.96;101771.41;5036065;28;19925;-76